createdAt,value
2023-11-07T00:01:49.321Z,101734.27
2023-11-07T00:04:17.127Z,101737.01
2023-11-07T00:06:44.452Z,101735.73
2023-11-07T00:09:11.384Z,101741.83
2023-11-07T00:11:40.204Z,101749.62
2023-11-07T00:14:07.228Z,101747.42
2023-11-07T00:16:35.187Z,101749.39
2023-11-07T00:19:03.345Z,101754.02
2023-11-07T00:21:30.441Z,101757.55
2023-11-07T00:23:57.219Z,101755.84
2023-11-07T00:26:24.008Z,101757.52
2023-11-07T00:28:51.552Z,101760.58
2023-11-07T00:31:20.435Z,101764.20
2023-11-07T00:33:47.392Z,101764.47
2023-11-07T00:36:14.642Z,101769.67
2023-11-07T00:38:41.640Z,101769.98
2023-11-07T00:41:08.654Z,101772.02
2023-11-07T00:43:35.889Z,101779.98
2023-11-07T00:46:04.462Z,101781.66
2023-11-07T00:48:31.924Z,101784.89
2023-11-07T00:51:00.836Z,101785.68
2023-11-07T00:53:28.099Z,101790.47
2023-11-07T00:55:55.146Z,101789.85
2023-11-07T00:58:22.076Z,101790.80
2023-11-07T01:00:49.616Z,101796.71
2023-11-07T01:03:16.534Z,101800.15
2023-11-07T01:05:43.859Z,101807.87
2023-11-07T01:08:12.210Z,101810.27
2023-11-07T01:10:39.745Z,101808.98
2023-11-07T01:13:06.911Z,101812.58
2023-11-07T01:15:33.755Z,101814.23
2023-11-07T01:18:01.603Z,101816.73
2023-11-07T01:20:28.675Z,101824.14
2023-11-07T01:22:55.803Z,101827.50
2023-11-07T01:25:22.744Z,101830.05
2023-11-07T01:27:49.807Z,101833.48
2023-11-07T01:30:17.293Z,101836.20
2023-11-07T01:32:44.248Z,101839.77
2023-11-07T01:35:11.346Z,101843.71
2023-11-07T01:37:38.296Z,101842.56
2023-11-07T01:40:06.155Z,101847.68
2023-11-07T01:42:42.405Z,101851.05
2023-11-07T01:45:11.107Z,101852.13
2023-11-07T01:47:39.848Z,101853.02
2023-11-07T01:50:11.669Z,101860.25
2023-11-07T01:52:42.016Z,101867.50
2023-11-07T01:55:12.518Z,101871.60
2023-11-07T01:57:42.541Z,101880.98
2023-11-07T02:00:12.498Z,101885.09
2023-11-07T02:02:42.969Z,101887.30
2023-11-07T02:05:12.691Z,101897.71
2023-11-07T02:07:40.027Z,101895.64
2023-11-07T02:10:09.791Z,101900.04
2023-11-07T02:12:36.677Z,101899.88
2023-11-07T02:15:28.422Z,101903.23
2023-11-07T02:17:55.948Z,101909.89
2023-11-07T02:20:23.348Z,101912.73
2023-11-07T02:22:54.252Z,101917.83
2023-11-07T02:25:21.199Z,101924.60
2023-11-07T02:27:48.767Z,101926.10
2023-11-07T02:30:17.480Z,101927.95
2023-11-07T02:32:44.981Z,101928.17
2023-11-07T02:35:12.274Z,101928.67
2023-11-07T02:37:40.009Z,101931.34
2023-11-07T02:40:10.700Z,101932.25
2023-11-07T02:42:37.604Z,101936.10
2023-11-07T02:45:06.384Z,101939.45
2023-11-07T02:47:34.166Z,101942.65
2023-11-07T02:50:03.857Z,101942.34
2023-11-07T02:52:31.924Z,101943.47
2023-11-07T02:54:59.688Z,101947.40
2023-11-07T02:57:26.483Z,101947.16
2023-11-07T02:59:53.513Z,101946.23
2023-11-07T03:02:21.645Z,101945.99
2023-11-07T03:04:48.897Z,101949.23
2023-11-07T03:07:15.843Z,101950.71
2023-11-07T03:09:43.094Z,101947.42
2023-11-07T03:12:13.416Z,101952.73
2023-11-07T03:14:42.325Z,101950.34
2023-11-07T03:17:09.568Z,101948.33
2023-11-07T03:19:36.503Z,101953.33
2023-11-07T03:22:03.536Z,101948.66
2023-11-07T03:24:30.609Z,101954.17
2023-11-07T03:26:57.492Z,101951.13
2023-11-07T03:29:24.918Z,101952.79
2023-11-07T03:31:54.402Z,101952.38
2023-11-07T03:34:22.094Z,101960.15
2023-11-07T03:36:49.013Z,101959.86
2023-11-07T03:39:16.466Z,101957.13
2023-11-07T03:41:45.699Z,101961.71
2023-11-07T03:44:13.425Z,101956.31
2023-11-07T03:46:41.713Z,101959.89
2023-11-07T03:49:08.821Z,101960.47
2023-11-07T03:51:35.826Z,101962.63
2023-11-07T03:54:02.785Z,101961.66
2023-11-07T03:56:29.818Z,101957.70
2023-11-07T03:58:56.843Z,101958.96
2023-11-07T04:01:23.789Z,101962.34
2023-11-07T04:03:51.791Z,101966.73
2023-11-07T04:06:18.970Z,101973.39
2023-11-07T04:08:46.103Z,101979.69
2023-11-07T04:11:14.428Z,101983.35
2023-11-07T04:13:43.414Z,101986.85
2023-11-07T04:16:10.389Z,101993.34
2023-11-07T04:18:37.216Z,101997.39
2023-11-07T04:21:05.004Z,101990.30
2023-11-07T04:23:32.012Z,101992.40
2023-11-07T04:25:59.161Z,102001.04
2023-11-07T04:28:27.333Z,102002.50
2023-11-07T04:30:54.351Z,102008.84
2023-11-07T04:33:22.041Z,102007.34
2023-11-07T04:35:49.688Z,102014.20
2023-11-07T04:38:17.474Z,102008.88
2023-11-07T04:40:44.309Z,102001.55
2023-11-07T04:43:11.597Z,102000.36
2023-11-07T04:45:38.807Z,102008.42
2023-11-07T04:48:06.882Z,102019.27
2023-11-07T04:50:35.509Z,102024.98
2023-11-07T04:53:05.179Z,102026.80
2023-11-07T04:55:35.066Z,102038.75
2023-11-07T04:58:02.034Z,102040.02
2023-11-07T05:00:29.287Z,102048.73
2023-11-07T05:02:56.198Z,102048.75
2023-11-07T05:05:23.283Z,102055.75
2023-11-07T05:07:51.764Z,102062.09
2023-11-07T05:10:20.658Z,102065.58
2023-11-07T05:12:48.319Z,102069.36
2023-11-07T05:15:15.315Z,102074.42
2023-11-07T05:17:42.395Z,102074.72
2023-11-07T05:20:11.161Z,102076.39
2023-11-07T05:22:38.187Z,102078.43
2023-11-07T05:25:09.674Z,102084.71
2023-11-07T05:27:36.760Z,102086.21
2023-11-07T05:30:04.833Z,102094.08
2023-11-07T05:32:31.997Z,102098.05
2023-11-07T05:34:58.927Z,102097.21
2023-11-07T05:37:25.862Z,102099.13
2023-11-07T05:39:52.699Z,102101.40
2023-11-07T05:42:20.269Z,102106.38
2023-11-07T05:44:47.199Z,102110.66
2023-11-07T05:47:14.449Z,102109.88
2023-11-07T05:49:41.303Z,102116.40
2023-11-07T05:52:08.463Z,102119.22
2023-11-07T05:54:35.396Z,102121.95
2023-11-07T05:57:02.661Z,102123.20
2023-11-07T05:59:29.713Z,102129.63
2023-11-07T06:01:56.828Z,102131.75
2023-11-07T06:04:31.577Z,102137.55
2023-11-07T06:06:59.548Z,102140.52
2023-11-07T06:09:30.873Z,102143.52
2023-11-07T06:11:57.759Z,102141.83
2023-11-07T06:14:25.199Z,102147.13
2023-11-07T06:16:55.186Z,102152.73
2023-11-07T06:19:22.358Z,102153.59
2023-11-07T06:21:50.222Z,102158.66
2023-11-07T06:24:17.433Z,102157.42
2023-11-07T06:26:44.451Z,102160.20
2023-11-07T06:29:13.233Z,102167.16
2023-11-07T06:31:44.758Z,102173.88
2023-11-07T06:34:12.671Z,102175.85
2023-11-07T06:36:39.644Z,102174.15
2023-11-07T06:39:07.134Z,102170.19
2023-11-07T06:41:35.086Z,102169.73
2023-11-07T06:44:02.018Z,102166.05
2023-11-07T06:46:28.987Z,102169.48
2023-11-07T06:48:59.320Z,102174.79
2023-11-07T06:51:28.488Z,102174.00
2023-11-07T06:53:55.433Z,102169.41
2023-11-07T06:56:22.372Z,102163.62
2023-11-07T06:58:49.314Z,102167.09
2023-11-07T07:01:16.467Z,102170.48
2023-11-07T07:03:43.309Z,102172.21
2023-11-07T07:06:11.734Z,102174.02
2023-11-07T07:08:38.878Z,102175.00
2023-11-07T07:11:06.604Z,102174.55
2023-11-07T07:13:34.278Z,102180.35
2023-11-07T07:16:01.311Z,102187.56
2023-11-07T07:18:28.571Z,102195.98
2023-11-07T07:20:56.119Z,102196.52
2023-11-07T07:23:26.247Z,102195.16
2023-11-07T07:25:56.773Z,102199.38
2023-11-07T07:28:26.381Z,102200.63
2023-11-07T07:30:55.058Z,102196.05
2023-11-07T07:33:25.066Z,102198.14
2023-11-07T07:35:52.398Z,102197.75
2023-11-07T07:38:19.642Z,102203.91
2023-11-07T07:40:46.435Z,102201.96
2023-11-07T07:43:13.367Z,102200.98
2023-11-07T07:45:43.174Z,102198.89
2023-11-07T07:48:11.455Z,102203.50
2023-11-07T07:50:42.562Z,102205.81
2023-11-07T07:53:09.849Z,102208.64
2023-11-07T07:55:38.994Z,102207.05
2023-11-07T07:58:07.116Z,102206.71
2023-11-07T08:00:34.067Z,102206.61
2023-11-07T08:03:07.927Z,102215.03
2023-11-07T08:05:39.631Z,102217.65
2023-11-07T08:08:07.487Z,102218.27
2023-11-07T08:10:34.645Z,102222.26
2023-11-07T08:13:06.302Z,102221.52
2023-11-07T08:15:36.003Z,102219.88
2023-11-07T08:18:06.775Z,102220.65
2023-11-07T08:20:34.292Z,102219.09
2023-11-07T08:23:02.363Z,102226.69
2023-11-07T08:25:29.356Z,102233.07
2023-11-07T08:27:56.667Z,102232.42
2023-11-07T08:30:24.217Z,102235.44
2023-11-07T08:32:52.133Z,102235.80
2023-11-07T08:35:19.748Z,102233.85
2023-11-07T08:37:50.893Z,102235.02
2023-11-07T08:40:20.468Z,102235.86
2023-11-07T08:42:49.081Z,102235.84
2023-11-07T08:45:16.826Z,102230.61
2023-11-07T08:47:44.871Z,102229.92
2023-11-07T08:50:14.933Z,102226.86
2023-11-07T08:52:41.854Z,102226.33
2023-11-07T08:55:09.761Z,102231.55
2023-11-07T08:57:42.262Z,102231.41
2023-11-07T09:00:10.568Z,102235.85
2023-11-07T09:02:39.015Z,102235.84
2023-11-07T09:05:07.494Z,102236.17
2023-11-07T09:07:35.690Z,102232.96
2023-11-07T09:10:03.187Z,102233.11
2023-11-07T09:12:30.488Z,102226.49
2023-11-07T09:15:00.080Z,102224.29
2023-11-07T09:17:28.041Z,102221.21
2023-11-07T09:19:55.476Z,102219.81
2023-11-07T09:22:23.954Z,102216.13
2023-11-07T09:24:51.920Z,102213.49
2023-11-07T09:27:19.110Z,102209.29
2023-11-07T09:29:46.991Z,102207.60
2023-11-07T09:32:14.502Z,102209.69
2023-11-07T09:34:42.221Z,102208.82
2023-11-07T09:37:09.405Z,102206.94
2023-11-07T09:39:36.667Z,102203.46
2023-11-07T09:42:08.611Z,102199.77
2023-11-07T09:44:38.993Z,102194.58
2023-11-07T09:47:06.924Z,102191.60
2023-11-07T09:49:34.241Z,102189.86
2023-11-07T09:52:05.424Z,102186.54
2023-11-07T09:54:33.648Z,102186.45
2023-11-07T09:57:07.260Z,102182.23
2023-11-07T09:59:50.207Z,102180.52
2023-11-07T10:02:17.561Z,102176.90
2023-11-07T10:04:45.385Z,102173.52
2023-11-07T10:07:13.602Z,102169.79
2023-11-07T10:09:41.227Z,102165.75
2023-11-07T10:12:16.299Z,102164.20
2023-11-07T10:14:43.451Z,102160.16
2023-11-07T10:17:23.502Z,102163.71
2023-11-07T10:20:05.706Z,102156.70
2023-11-07T10:22:51.186Z,102153.41
2023-11-07T10:25:35.597Z,102150.67
2023-11-07T10:28:03.602Z,102151.30
2023-11-07T10:30:37.604Z,102151.63
2023-11-07T10:33:04.639Z,102153.02
2023-11-07T10:35:52.101Z,102152.65
2023-11-07T10:38:19.402Z,102157.59
2023-11-07T10:40:48.697Z,102159.73
2023-11-07T10:43:34.420Z,102155.16
2023-11-07T10:46:05.582Z,102155.92
2023-11-07T10:48:42.991Z,102158.43
2023-11-07T10:51:14.033Z,102161.98
2023-11-07T10:53:45.281Z,102159.71
2023-11-07T10:56:18.945Z,102157.43
2023-11-07T10:58:55.482Z,102150.88
2023-11-07T11:01:22.393Z,102148.79
2023-11-07T11:03:52.924Z,102145.08
2023-11-07T11:06:24.779Z,102141.90
2023-11-07T11:08:55.077Z,102137.48
2023-11-07T11:11:22.120Z,102144.51
2023-11-07T11:13:49.176Z,102146.63
2023-11-07T11:16:16.211Z,102147.51
2023-11-07T11:18:57.037Z,102150.06
2023-11-07T11:21:58.031Z,102147.95
2023-11-07T11:24:41.071Z,102149.92
2023-11-07T11:27:15.344Z,102147.42
2023-11-07T11:29:49.833Z,102147.51
2023-11-07T11:32:32.540Z,102143.02
2023-11-07T11:35:28.416Z,102138.45
2023-11-07T11:38:14.717Z,102135.20
2023-11-07T11:41:00.188Z,102130.91
2023-11-07T11:43:33.523Z,102126.63
2023-11-07T11:46:29.936Z,102121.27
2023-11-07T11:49:09.620Z,102121.44
2023-11-07T11:51:41.345Z,102115.74
2023-11-07T11:54:12.166Z,102115.00
2023-11-07T11:56:51.256Z,102117.23
2023-11-07T11:59:20.013Z,102120.61
2023-11-07T12:01:50.805Z,102124.02
2023-11-07T12:04:40.841Z,102125.81
2023-11-07T12:07:11.068Z,102121.58
2023-11-07T12:09:38.902Z,102123.77
2023-11-07T12:12:06.825Z,102119.41
2023-11-07T12:14:34.205Z,102122.90
2023-11-07T12:17:01.481Z,102122.71
2023-11-07T12:19:30.235Z,102121.38
2023-11-07T12:22:00.193Z,102119.98
2023-11-07T12:24:27.242Z,102123.46
2023-11-07T12:26:54.282Z,102128.23
2023-11-07T12:29:34.739Z,102130.42
2023-11-07T12:32:03.975Z,102136.20
2023-11-07T12:34:32.306Z,102128.64
2023-11-07T12:37:10.359Z,102126.80
2023-11-07T12:39:37.398Z,102129.69
2023-11-07T12:42:05.521Z,102129.08
2023-11-07T12:44:32.554Z,102129.38
2023-11-07T12:46:59.603Z,102130.60
2023-11-07T12:49:28.703Z,102129.95
2023-11-07T12:51:56.601Z,102127.95
2023-11-07T12:54:28.414Z,102130.11
2023-11-07T12:56:55.855Z,102128.60
2023-11-07T12:59:23.252Z,102126.20
2023-11-07T13:01:50.296Z,102125.20
2023-11-07T13:04:18.897Z,102126.05
2023-11-07T13:06:59.305Z,102123.98
2023-11-07T13:09:33.094Z,102126.92
2023-11-07T13:12:10.129Z,102124.18
2023-11-07T13:14:40.442Z,102125.23
2023-11-07T13:17:08.952Z,102121.77
2023-11-07T13:19:37.012Z,102123.42
2023-11-07T13:22:04.561Z,102123.15
2023-11-07T13:24:31.807Z,102125.34
2023-11-07T13:26:59.877Z,102124.60
2023-11-07T13:29:28.048Z,102124.20
2023-11-07T13:31:55.600Z,102125.33
2023-11-07T13:34:22.761Z,102120.62
2023-11-07T13:36:49.726Z,102114.91
2023-11-07T13:39:24.443Z,102112.58
2023-11-07T13:41:52.043Z,102114.21
2023-11-07T13:44:19.134Z,102114.27
2023-11-07T13:46:47.417Z,102119.88
2023-11-07T13:49:14.624Z,102121.77
2023-11-07T13:51:42.141Z,102119.18
2023-11-07T13:54:09.521Z,102115.70
2023-11-07T13:56:37.046Z,102110.88
2023-11-07T13:59:05.586Z,102108.11
2023-11-07T14:01:32.680Z,102107.11
2023-11-07T14:03:59.861Z,102106.93
2023-11-07T14:06:28.009Z,102103.73
2023-11-07T14:08:55.286Z,102099.98
2023-11-07T14:11:22.403Z,102099.80
2023-11-07T14:13:51.182Z,102090.64
2023-11-07T14:16:18.931Z,102088.69
2023-11-07T14:18:49.566Z,102081.74
2023-11-07T14:21:17.842Z,102082.30
2023-11-07T14:23:47.683Z,102082.00
2023-11-07T14:26:15.833Z,102081.46
2023-11-07T14:28:50.937Z,102082.39
2023-11-07T14:31:26.436Z,102076.45
2023-11-07T14:33:53.754Z,102074.05
2023-11-07T14:36:20.992Z,102070.96
2023-11-07T14:38:48.054Z,102070.77
2023-11-07T14:41:15.208Z,102081.70
2023-11-07T14:43:42.379Z,102082.23
2023-11-07T14:46:10.836Z,102084.91
2023-11-07T14:48:38.003Z,102087.21
2023-11-07T14:51:05.660Z,102086.27
2023-11-07T14:53:33.225Z,102083.17
2023-11-07T14:56:00.360Z,102084.32
2023-11-07T14:58:27.327Z,102080.30
2023-11-07T15:00:54.754Z,102089.35
2023-11-07T15:03:23.209Z,102090.48
2023-11-07T15:05:52.327Z,102091.96
2023-11-07T15:08:20.001Z,102096.29
2023-11-07T15:10:47.043Z,102096.41
2023-11-07T15:13:14.166Z,102098.30
2023-11-07T15:15:41.809Z,102101.80
2023-11-07T15:18:12.531Z,102101.16
2023-11-07T15:20:40.762Z,102101.09
2023-11-07T15:23:08.099Z,102099.73
2023-11-07T15:25:35.816Z,102097.52
2023-11-07T15:28:03.585Z,102093.96
2023-11-07T15:30:35.511Z,102096.67
2023-11-07T15:33:03.662Z,102094.39
2023-11-07T15:35:35.169Z,102101.54
2023-11-07T15:38:02.387Z,102096.71
2023-11-07T15:40:29.527Z,102096.95
2023-11-07T15:42:56.795Z,102095.63
2023-11-07T15:45:23.839Z,102102.50
2023-11-07T15:47:51.048Z,102104.66
2023-11-07T15:50:18.264Z,102108.32
2023-11-07T15:52:55.873Z,102107.84
2023-11-07T15:55:32.593Z,102106.13
2023-11-07T15:58:00.057Z,102104.70
2023-11-07T16:00:28.673Z,102097.19
2023-11-07T16:02:55.871Z,102089.60
2023-11-07T16:05:29.744Z,102088.25
2023-11-07T16:07:56.860Z,102089.95
2023-11-07T16:10:26.707Z,102090.43
2023-11-07T16:12:54.324Z,102090.73
2023-11-07T16:15:21.862Z,102087.77
2023-11-07T16:17:49.798Z,102089.81
2023-11-07T16:20:20.718Z,102090.31
2023-11-07T16:22:48.208Z,102085.19
2023-11-07T16:25:16.544Z,102081.61
2023-11-07T16:27:43.876Z,102081.83
2023-11-07T16:30:12.307Z,102083.40
2023-11-07T16:32:40.062Z,102087.52
2023-11-07T16:35:07.686Z,102091.51
2023-11-07T16:37:35.028Z,102093.51
2023-11-07T16:40:08.891Z,102092.68
2023-11-07T16:42:36.807Z,102093.70
2023-11-07T16:45:05.880Z,102088.90
2023-11-07T16:47:34.861Z,102082.15
2023-11-07T16:50:02.451Z,102073.48
2023-11-07T16:52:29.550Z,102076.81
2023-11-07T16:54:56.741Z,102078.01
2023-11-07T16:57:23.943Z,102077.60
2023-11-07T16:59:51.798Z,102069.83
2023-11-07T17:02:19.314Z,102061.80
2023-11-07T17:04:46.486Z,102057.52
2023-11-07T17:07:13.831Z,102057.10
2023-11-07T17:09:41.459Z,102054.08
2023-11-07T17:12:08.726Z,102051.05
2023-11-07T17:14:37.689Z,102052.25
2023-11-07T17:17:05.901Z,102053.13
2023-11-07T17:19:32.943Z,102052.90
2023-11-07T17:21:59.903Z,102052.15
2023-11-07T17:24:28.209Z,102052.32
2023-11-07T17:26:55.661Z,102045.42
2023-11-07T17:29:22.974Z,102040.76
2023-11-07T17:31:50.152Z,102040.77
2023-11-07T17:34:17.694Z,102042.18
2023-11-07T17:36:46.688Z,102033.89
2023-11-07T17:39:16.123Z,102036.44
2023-11-07T17:41:46.917Z,102035.67
2023-11-07T17:44:18.581Z,102034.52
2023-11-07T17:46:45.490Z,102034.36
2023-11-07T17:49:15.012Z,102033.80
2023-11-07T17:51:45.585Z,102035.77
2023-11-07T17:54:13.670Z,102032.96
2023-11-07T17:56:41.266Z,102029.02
2023-11-07T17:59:11.914Z,102030.55
2023-11-07T18:01:39.654Z,102025.61
2023-11-07T18:04:07.306Z,102023.73
2023-11-07T18:06:34.667Z,102022.61
2023-11-07T18:09:02.346Z,102018.48
2023-11-07T18:11:34.274Z,102020.36
2023-11-07T18:14:03.099Z,102019.10
2023-11-07T18:16:30.457Z,102018.90
2023-11-07T18:18:59.455Z,102018.88
2023-11-07T18:21:28.109Z,102017.33
2023-11-07T18:23:55.869Z,102020.24
2023-11-07T18:26:23.515Z,102018.16
2023-11-07T18:28:50.778Z,102015.66
2023-11-07T18:31:18.248Z,102018.06
2023-11-07T18:33:49.421Z,102012.75
2023-11-07T18:36:18.580Z,102009.38
2023-11-07T18:38:46.292Z,102009.92
2023-11-07T18:41:13.320Z,102018.21
2023-11-07T18:43:40.369Z,102014.30
2023-11-07T18:46:11.417Z,102016.94
2023-11-07T18:48:40.157Z,102019.71
2023-11-07T18:51:07.695Z,102021.83
2023-11-07T18:53:43.499Z,102025.34
2023-11-07T18:56:13.920Z,102026.94
2023-11-07T18:58:42.320Z,102026.20
2023-11-07T19:01:09.992Z,102025.20
2023-11-07T19:03:37.332Z,102026.66
2023-11-07T19:06:07.324Z,102027.73
2023-11-07T19:08:34.912Z,102024.76
2023-11-07T19:11:02.246Z,102025.42
2023-11-07T19:13:29.295Z,102029.32
2023-11-07T19:15:56.345Z,102023.98
2023-11-07T19:18:25.214Z,102022.70
2023-11-07T19:20:54.641Z,102018.30
2023-11-07T19:23:23.237Z,102017.50
2023-11-07T19:25:53.029Z,102010.45
2023-11-07T19:28:24.184Z,102008.23
2023-11-07T19:30:51.221Z,102007.50
2023-11-07T19:33:19.881Z,102008.35
2023-11-07T19:35:48.734Z,102009.92
2023-11-07T19:38:15.690Z,102008.69
2023-11-07T19:40:44.527Z,102004.58
2023-11-07T19:43:11.586Z,102004.88
2023-11-07T19:45:43.561Z,102005.21
2023-11-07T19:48:14.522Z,102001.82
2023-11-07T19:50:41.755Z,102001.24
2023-11-07T19:53:12.011Z,101999.58
2023-11-07T19:55:39.270Z,101992.59
2023-11-07T19:58:06.064Z,101989.21
2023-11-07T20:00:33.258Z,101990.16
2023-11-07T20:03:00.975Z,101989.23
2023-11-07T20:05:28.125Z,101993.41
2023-11-07T20:07:56.757Z,101991.06
2023-11-07T20:10:25.278Z,101986.05
2023-11-07T20:12:52.741Z,101986.00
2023-11-07T20:15:20.028Z,101986.68
2023-11-07T20:17:47.187Z,101981.21
2023-11-07T20:20:15.517Z,101978.79
2023-11-07T20:22:44.515Z,101982.05
2023-11-07T20:25:11.553Z,101981.46
2023-11-07T20:27:40.405Z,101983.19
2023-11-07T20:30:11.481Z,101985.21
2023-11-07T20:32:38.699Z,101981.98
2023-11-07T20:35:06.639Z,101978.23
2023-11-07T20:37:33.668Z,101980.35
2023-11-07T20:40:00.915Z,101978.20
2023-11-07T20:42:28.484Z,101973.24
2023-11-07T20:45:01.309Z,101969.68
2023-11-07T20:47:36.131Z,101973.86
2023-11-07T20:50:06.648Z,101975.27
2023-11-07T20:52:33.928Z,101974.20
2023-11-07T20:55:01.200Z,101973.84
2023-11-07T20:57:28.259Z,101977.73
2023-11-07T20:59:55.198Z,101976.83
2023-11-07T21:02:22.354Z,101976.13
2023-11-07T21:04:49.548Z,101982.98
2023-11-07T21:07:16.761Z,101985.80
2023-11-07T21:09:43.786Z,101984.90
2023-11-07T21:12:10.837Z,101984.66
2023-11-07T21:14:39.429Z,101986.42
2023-11-07T21:17:06.487Z,101981.30
2023-11-07T21:19:36.787Z,101976.83
2023-11-07T21:22:06.634Z,101971.25
2023-11-07T21:24:33.891Z,101965.11
2023-11-07T21:27:01.207Z,101961.08
2023-11-07T21:29:30.418Z,101953.64
2023-11-07T21:31:59.291Z,101949.38
2023-11-07T21:34:26.418Z,101946.59
2023-11-07T21:36:53.662Z,101950.46
2023-11-07T21:39:21.988Z,101953.27
2023-11-07T21:41:49.482Z,101949.27
2023-11-07T21:44:16.591Z,101950.91
2023-11-07T21:46:43.420Z,101951.58
2023-11-07T21:49:10.499Z,101952.45
2023-11-07T21:51:37.860Z,101955.08
2023-11-07T21:54:05.726Z,101956.46
2023-11-07T21:56:32.839Z,101955.73
2023-11-07T21:58:59.678Z,101957.80
2023-11-07T22:01:27.030Z,101956.30
2023-11-07T22:03:54.478Z,101954.20
2023-11-07T22:06:22.116Z,101950.11
2023-11-07T22:08:49.919Z,101949.95
2023-11-07T22:11:16.871Z,101948.54
2023-11-07T22:13:43.909Z,101948.66
2023-11-07T22:16:11.484Z,101945.68
2023-11-07T22:18:39.773Z,101943.79
2023-11-07T22:21:07.588Z,101937.42
2023-11-07T22:23:35.283Z,101928.77
2023-11-07T22:26:02.212Z,101925.42
2023-11-07T22:28:31.543Z,101919.29
2023-11-07T22:30:59.904Z,101919.45
2023-11-07T22:33:27.211Z,101920.03
2023-11-07T22:35:54.499Z,101913.02
2023-11-07T22:38:21.658Z,101908.05
2023-11-07T22:40:51.644Z,101909.02
2023-11-07T22:43:19.530Z,101901.40
2023-11-07T22:45:47.736Z,101901.45
2023-11-07T22:48:14.971Z,101897.79
2023-11-07T22:50:42.105Z,101896.42
2023-11-07T22:53:10.327Z,101894.73
2023-11-07T22:55:37.654Z,101890.94
2023-11-07T22:58:05.594Z,101890.06
2023-11-07T23:00:41.618Z,101885.50
2023-11-07T23:03:11.619Z,101886.42
2023-11-07T23:05:40.297Z,101883.66
2023-11-07T23:08:10.781Z,101878.05
2023-11-07T23:10:39.493Z,101871.85
2023-11-07T23:13:07.557Z,101869.11
2023-11-07T23:15:35.340Z,101867.52
2023-11-07T23:18:02.349Z,101860.52
2023-11-07T23:20:31.092Z,101862.53
2023-11-07T23:22:59.207Z,101857.41
2023-11-07T23:25:27.089Z,101852.66
2023-11-07T23:27:54.222Z,101850.80
2023-11-07T23:30:21.911Z,101852.23
2023-11-07T23:32:49.859Z,101849.44
2023-11-07T23:35:18.698Z,101846.89
2023-11-07T23:37:45.620Z,101849.33
2023-11-07T23:40:13.146Z,101843.69
2023-11-07T23:42:41.673Z,101841.91
2023-11-07T23:45:09.217Z,101837.64
2023-11-07T23:47:36.642Z,101832.13
2023-11-07T23:50:05.808Z,101834.55
2023-11-07T23:52:33.599Z,101831.02
2023-11-07T23:55:01.465Z,101824.95
2023-11-07T23:57:29.223Z,101818.97
2023-11-07T23:59:56.891Z,101821.64
